sensor_id;sensor_type;location;lat;lon;timestamp;pressure;altitude;pressure_sealevel;temperature;humidity
30598;BME280;17365;48.878;8.334;2023-08-06T00:00:16;99232.81;;;16.92;86.02
30598;BME280;17365;48.878;8.334;2023-08-06T00:02:42;99226.16;;;16.83;85.75
30598;BME280;17365;48.878;8.334;2023-08-06T00:05:07;99227.25;;;16.77;85.24
30598;BME280;17365;48.878;8.334;2023-08-06T00:07:32;99227.19;;;16.79;84.90
30598;BME280;17365;48.878;8.334;2023-08-06T00:09:57;99230.31;;;16.88;84.35
30598;BME280;17365;48.878;8.334;2023-08-06T00:12:22;99224.94;;;16.92;84.24
30598;BME280;17365;48.878;8.334;2023-08-06T00:14:51;99217.41;;;17.06;84.02
30598;BME280;17365;48.878;8.334;2023-08-06T00:17:16;99206.69;;;17.12;83.64
30598;BME280;17365;48.878;8.334;2023-08-06T00:19:41;99211.31;;;17.05;83.96
30598;BME280;17365;48.878;8.334;2023-08-06T00:22:06;99215.81;;;17.02;83.03
30598;BME280;17365;48.878;8.334;2023-08-06T00:24:32;99215.88;;;17.00;83.03
30598;BME280;17365;48.878;8.334;2023-08-06T00:26:57;99203.06;;;16.93;83.33
30598;BME280;17365;48.878;8.334;2023-08-06T00:29:22;99195.94;;;16.96;83.00
30598;BME280;17365;48.878;8.334;2023-08-06T00:31:47;99195.56;;;16.83;82.89
30598;BME280;17365;48.878;8.334;2023-08-06T00:34:12;99196.00;;;16.95;83.75
30598;BME280;17365;48.878;8.334;2023-08-06T00:36:37;99201.44;;;16.90;83.02
30598;BME280;17365;48.878;8.334;2023-08-06T00:39:03;99201.50;;;16.88;83.10
30598;BME280;17365;48.878;8.334;2023-08-06T00:41:28;99191.06;;;16.87;83.22
30598;BME280;17365;48.878;8.334;2023-08-06T00:43:53;99197.53;;;16.78;83.77
30598;BME280;17365;48.878;8.334;2023-08-06T00:46:19;99191.53;;;16.75;84.42
30598;BME280;17365;48.878;8.334;2023-08-06T00:48:44;99189.09;;;16.70;82.89
30598;BME280;17365;48.878;8.334;2023-08-06T00:51:09;99195.91;;;16.74;83.12
30598;BME280;17365;48.878;8.334;2023-08-06T00:53:35;99186.31;;;16.97;82.13
30598;BME280;17365;48.878;8.334;2023-08-06T00:56:01;99194.97;;;16.99;80.89
30598;BME280;17365;48.878;8.334;2023-08-06T00:58:27;99196.97;;;16.92;80.30
30598;BME280;17365;48.878;8.334;2023-08-06T01:00:52;99187.09;;;16.99;80.60
30598;BME280;17365;48.878;8.334;2023-08-06T01:03:17;99182.56;;;17.04;80.56
30598;BME280;17365;48.878;8.334;2023-08-06T01:05:42;99177.44;;;17.01;80.49
30598;BME280;17365;48.878;8.334;2023-08-06T01:08:17;99172.91;;;17.04;81.68
30598;BME280;17365;48.878;8.334;2023-08-06T01:11:03;99177.44;;;17.01;80.54
30598;BME280;17365;48.878;8.334;2023-08-06T01:13:32;99167.56;;;17.07;80.57
30598;BME280;17365;48.878;8.334;2023-08-06T01:15:58;99174.88;;;16.99;80.58
30598;BME280;17365;48.878;8.334;2023-08-06T01:18:27;99162.56;;;17.01;80.56
30598;BME280;17365;48.878;8.334;2023-08-06T01:20:52;99163.53;;;16.99;80.84
30598;BME280;17365;48.878;8.334;2023-08-06T01:23:17;99168.75;;;16.99;80.08
30598;BME280;17365;48.878;8.334;2023-08-06T01:25:46;99152.09;;;17.01;80.50
30598;BME280;17365;48.878;8.334;2023-08-06T01:28:19;99155.84;;;16.94;80.18
30598;BME280;17365;48.878;8.334;2023-08-06T01:30:46;99154.88;;;16.97;80.72
30598;BME280;17365;48.878;8.334;2023-08-06T01:33:14;99155.56;;;17.02;79.57
30598;BME280;17365;48.878;8.334;2023-08-06T01:35:41;99151.97;;;17.04;80.73
30598;BME280;17365;48.878;8.334;2023-08-06T01:38:07;99140.44;;;17.08;80.60
30598;BME280;17365;48.878;8.334;2023-08-06T01:40:32;99138.06;;;17.02;80.03
30598;BME280;17365;48.878;8.334;2023-08-06T01:42:59;99138.06;;;17.02;80.29
30598;BME280;17365;48.878;8.334;2023-08-06T01:45:24;99140.84;;;16.98;80.69
30598;BME280;17365;48.878;8.334;2023-08-06T01:47:49;99141.25;;;17.10;80.09
30598;BME280;17365;48.878;8.334;2023-08-06T01:50:14;99139.78;;;17.03;80.75
30598;BME280;17365;48.878;8.334;2023-08-06T01:52:39;99140.25;;;17.13;80.57
30598;BME280;17365;48.878;8.334;2023-08-06T01:55:05;99141.84;;;17.17;80.12
30598;BME280;17365;48.878;8.334;2023-08-06T01:57:30;99131.72;;;17.08;80.91
30598;BME280;17365;48.878;8.334;2023-08-06T01:59:55;99142.09;;;17.11;82.20
30598;BME280;17365;48.878;8.334;2023-08-06T02:02:20;99137.72;;;17.11;82.31
30598;BME280;17365;48.878;8.334;2023-08-06T02:04:45;99139.63;;;17.28;81.64
30598;BME280;17365;48.878;8.334;2023-08-06T02:07:11;99128.59;;;17.20;83.14
30598;BME280;17365;48.878;8.334;2023-08-06T02:09:36;99137.75;;;17.10;84.14
30598;BME280;17365;48.878;8.334;2023-08-06T02:12:01;99130.88;;;17.07;84.52
30598;BME280;17365;48.878;8.334;2023-08-06T02:14:29;99133.25;;;17.13;83.55
30598;BME280;17365;48.878;8.334;2023-08-06T02:16:54;99140.69;;;17.02;84.08
30598;BME280;17365;48.878;8.334;2023-08-06T02:19:19;99140.81;;;16.99;84.97
30598;BME280;17365;48.878;8.334;2023-08-06T02:21:44;99125.75;;;17.04;84.45
30598;BME280;17365;48.878;8.334;2023-08-06T02:24:09;99134.16;;;17.12;84.96
30598;BME280;17365;48.878;8.334;2023-08-06T02:26:35;99143.69;;;16.93;85.84
30598;BME280;17365;48.878;8.334;2023-08-06T02:29:00;99135.44;;;16.80;88.04
30598;BME280;17365;48.878;8.334;2023-08-06T02:31:25;99136.03;;;16.87;88.65
30598;BME280;17365;48.878;8.334;2023-08-06T02:33:50;99144.59;;;16.92;88.76
30598;BME280;17365;48.878;8.334;2023-08-06T02:36:15;99146.34;;;16.92;90.21
30598;BME280;17365;48.878;8.334;2023-08-06T02:38:41;99156.06;;;16.90;90.53
30598;BME280;17365;48.878;8.334;2023-08-06T02:41:06;99150.81;;;16.90;90.51
30598;BME280;17365;48.878;8.334;2023-08-06T02:43:31;99153.06;;;16.77;92.73
30598;BME280;17365;48.878;8.334;2023-08-06T02:45:57;99157.00;;;16.64;94.53
30598;BME280;17365;48.878;8.334;2023-08-06T02:48:23;99159.06;;;16.55;94.97
30598;BME280;17365;48.878;8.334;2023-08-06T02:50:48;99164.06;;;16.38;97.13
30598;BME280;17365;48.878;8.334;2023-08-06T02:53:13;99173.97;;;16.30;98.05
30598;BME280;17365;48.878;8.334;2023-08-06T02:55:44;99174.16;;;16.25;98.35
30598;BME280;17365;48.878;8.334;2023-08-06T02:58:09;99174.34;;;16.19;98.94
30598;BME280;17365;48.878;8.334;2023-08-06T03:00:35;99173.63;;;16.39;97.42
30598;BME280;17365;48.878;8.334;2023-08-06T03:03:00;99184.47;;;16.05;98.11
30598;BME280;17365;48.878;8.334;2023-08-06T03:05:25;99180.03;;;15.82;98.70
30598;BME280;17365;48.878;8.334;2023-08-06T03:07:50;99170.28;;;15.87;97.22
30598;BME280;17365;48.878;8.334;2023-08-06T03:10:15;99173.69;;;15.64;98.14
30598;BME280;17365;48.878;8.334;2023-08-06T03:12:41;99178.91;;;15.64;97.50
30598;BME280;17365;48.878;8.334;2023-08-06T03:15:06;99174.25;;;15.72;97.82
30598;BME280;17365;48.878;8.334;2023-08-06T03:17:31;99169.19;;;15.68;98.59
30598;BME280;17365;48.878;8.334;2023-08-06T03:19:56;99174.75;;;15.84;98.15
30598;BME280;17365;48.878;8.334;2023-08-06T03:22:21;99165.91;;;15.63;99.73
30598;BME280;17365;48.878;8.334;2023-08-06T03:24:49;99163.38;;;15.85;98.88
30598;BME280;17365;48.878;8.334;2023-08-06T03:27:15;99161.00;;;15.52;100.00
30598;BME280;17365;48.878;8.334;2023-08-06T03:29:40;99160.50;;;15.67;99.64
30598;BME280;17365;48.878;8.334;2023-08-06T03:32:05;99162.09;;;15.71;99.11
30598;BME280;17365;48.878;8.334;2023-08-06T03:34:31;99164.63;;;15.75;98.36
30598;BME280;17365;48.878;8.334;2023-08-06T03:36:56;99169.75;;;15.78;97.98
30598;BME280;17365;48.878;8.334;2023-08-06T03:39:21;99166.84;;;15.60;98.58
30598;BME280;17365;48.878;8.334;2023-08-06T03:41:46;99168.34;;;15.67;98.26
30598;BME280;17365;48.878;8.334;2023-08-06T03:44:11;99170.56;;;15.53;98.66
30598;BME280;17365;48.878;8.334;2023-08-06T03:46:36;99172.09;;;15.59;99.00
30598;BME280;17365;48.878;8.334;2023-08-06T03:49:02;99165.94;;;15.61;98.78
30598;BME280;17365;48.878;8.334;2023-08-06T03:51:27;99165.72;;;15.67;98.10
30598;BME280;17365;48.878;8.334;2023-08-06T03:53:52;99167.72;;;15.59;99.73
30598;BME280;17365;48.878;8.334;2023-08-06T03:56:17;99162.94;;;15.72;98.38
30598;BME280;17365;48.878;8.334;2023-08-06T03:58:42;99163.88;;;15.44;99.20
30598;BME280;17365;48.878;8.334;2023-08-06T04:01:08;99158.63;;;15.71;98.59
30598;BME280;17365;48.878;8.334;2023-08-06T04:03:33;99154.88;;;15.53;98.62
30598;BME280;17365;48.878;8.334;2023-08-06T04:05:58;99164.41;;;15.81;98.21
30598;BME280;17365;48.878;8.334;2023-08-06T04:08:24;99159.41;;;15.75;98.59
30598;BME280;17365;48.878;8.334;2023-08-06T04:10:51;99162.31;;;15.65;99.66
30598;BME280;17365;48.878;8.334;2023-08-06T04:13:16;99169.38;;;15.63;99.96
30598;BME280;17365;48.878;8.334;2023-08-06T04:15:41;99163.19;;;15.66;100.00
30598;BME280;17365;48.878;8.334;2023-08-06T04:18:06;99167.44;;;15.42;100.00
30598;BME280;17365;48.878;8.334;2023-08-06T04:20:31;99153.63;;;15.65;100.00
30598;BME280;17365;48.878;8.334;2023-08-06T04:22:57;99162.47;;;15.59;100.00
30598;BME280;17365;48.878;8.334;2023-08-06T04:25:22;99153.16;;;15.52;100.00
30598;BME280;17365;48.878;8.334;2023-08-06T04:27:48;99152.94;;;15.58;100.00
30598;BME280;17365;48.878;8.334;2023-08-06T04:30:13;99166.72;;;15.37;100.00
30598;BME280;17365;48.878;8.334;2023-08-06T04:32:39;99165.56;;;15.46;100.00
30598;BME280;17365;48.878;8.334;2023-08-06T04:35:04;99167.31;;;15.45;100.00
30598;BME280;17365;48.878;8.334;2023-08-06T04:37:29;99170.13;;;15.39;100.00
30598;BME280;17365;48.878;8.334;2023-08-06T04:39:54;99161.31;;;15.43;100.00
30598;BME280;17365;48.878;8.334;2023-08-06T04:42:19;99158.81;;;15.38;100.00
30598;BME280;17365;48.878;8.334;2023-08-06T04:44:45;99154.25;;;15.45;100.00
30598;BME280;17365;48.878;8.334;2023-08-06T04:47:10;99163.34;;;15.33;100.00
30598;BME280;17365;48.878;8.334;2023-08-06T04:49:35;99153.75;;;15.34;100.00
30598;BME280;17365;48.878;8.334;2023-08-06T04:52:00;99153.81;;;15.32;100.00
30598;BME280;17365;48.878;8.334;2023-08-06T04:54:25;99156.88;;;15.45;100.00
30598;BME280;17365;48.878;8.334;2023-08-06T04:56:51;99162.41;;;15.36;100.00
30598;BME280;17365;48.878;8.334;2023-08-06T04:59:16;99156.75;;;15.48;100.00
30598;BME280;17365;48.878;8.334;2023-08-06T05:01:41;99162.78;;;15.50;100.00
30598;BME280;17365;48.878;8.334;2023-08-06T05:04:06;99172.84;;;15.36;100.00
30598;BME280;17365;48.878;8.334;2023-08-06T05:06:31;99166.09;;;15.30;100.00
30598;BME280;17365;48.878;8.334;2023-08-06T05:08:57;99168.28;;;15.42;100.00
30598;BME280;17365;48.878;8.334;2023-08-06T05:11:22;99166.25;;;15.24;100.00
30598;BME280;17365;48.878;8.334;2023-08-06T05:13:47;99168.25;;;15.18;100.00
30598;BME280;17365;48.878;8.334;2023-08-06T05:16:12;99170.34;;;15.33;100.00
30598;BME280;17365;48.878;8.334;2023-08-06T05:18:37;99161.75;;;15.29;100.00
30598;BME280;17365;48.878;8.334;2023-08-06T05:21:03;99166.72;;;15.37;100.00
30598;BME280;17365;48.878;8.334;2023-08-06T05:23:28;99170.41;;;15.31;100.00
30598;BME280;17365;48.878;8.334;2023-08-06T05:25:54;99170.06;;;15.42;100.00
30598;BME280;17365;48.878;8.334;2023-08-06T05:28:19;99178.22;;;15.58;100.00
30598;BME280;17365;48.878;8.334;2023-08-06T05:30:44;99167.63;;;15.36;100.00
30598;BME280;17365;48.878;8.334;2023-08-06T05:33:09;99170.47;;;15.30;100.00
30598;BME280;17365;48.878;8.334;2023-08-06T05:35:34;99179.09;;;15.32;100.00
30598;BME280;17365;48.878;8.334;2023-08-06T05:38:00;99172.75;;;15.39;100.00
30598;BME280;17365;48.878;8.334;2023-08-06T05:40:25;99178.59;;;15.21;100.00
30598;BME280;17365;48.878;8.334;2023-08-06T05:42:51;99187.72;;;15.07;100.00
30598;BME280;17365;48.878;8.334;2023-08-06T05:45:16;99186.88;;;15.05;100.00
30598;BME280;17365;48.878;8.334;2023-08-06T05:47:41;99189.16;;;15.16;100.00
30598;BME280;17365;48.878;8.334;2023-08-06T05:50:07;99190.72;;;14.95;100.00
30598;BME280;17365;48.878;8.334;2023-08-06T05:52:32;99193.22;;;14.98;100.00
30598;BME280;17365;48.878;8.334;2023-08-06T05:54:57;99186.47;;;14.91;100.00
30598;BME280;17365;48.878;8.334;2023-08-06T05:57:22;99189.88;;;14.93;100.00
30598;BME280;17365;48.878;8.334;2023-08-06T05:59:48;99188.75;;;15.02;100.00
30598;BME280;17365;48.878;8.334;2023-08-06T06:02:13;99189.44;;;15.08;100.00
30598;BME280;17365;48.878;8.334;2023-08-06T06:04:38;99186.34;;;14.94;100.00
30598;BME280;17365;48.878;8.334;2023-08-06T06:07:03;99188.16;;;14.92;100.00
30598;BME280;17365;48.878;8.334;2023-08-06T06:09:29;99193.91;;;15.03;100.00
30598;BME280;17365;48.878;8.334;2023-08-06T06:11:54;99185.13;;;15.06;100.00
30598;BME280;17365;48.878;8.334;2023-08-06T06:14:19;99184.53;;;14.98;100.00
30598;BME280;17365;48.878;8.334;2023-08-06T06:16:45;99194.03;;;15.00;100.00
30598;BME280;17365;48.878;8.334;2023-08-06T06:19:10;99194.25;;;14.93;100.00
30598;BME280;17365;48.878;8.334;2023-08-06T06:21:35;99198.63;;;14.92;100.00
30598;BME280;17365;48.878;8.334;2023-08-06T06:24:00;99208.47;;;14.84;100.00
30598;BME280;17365;48.878;8.334;2023-08-06T06:26:26;99205.91;;;14.81;100.00
30598;BME280;17365;48.878;8.334;2023-08-06T06:28:51;99210.38;;;15.07;100.00
30598;BME280;17365;48.878;8.334;2023-08-06T06:31:16;99207.25;;;14.96;100.00
30598;BME280;17365;48.878;8.334;2023-08-06T06:33:41;99212.69;;;14.88;100.00
30598;BME280;17365;48.878;8.334;2023-08-06T06:36:06;99220.63;;;14.85;100.00
30598;BME280;17365;48.878;8.334;2023-08-06T06:38:32;99213.63;;;14.85;100.00
30598;BME280;17365;48.878;8.334;2023-08-06T06:40:58;99215.59;;;14.77;100.00
30598;BME280;17365;48.878;8.334;2023-08-06T06:43:23;99214.75;;;14.77;100.00
30598;BME280;17365;48.878;8.334;2023-08-06T06:45:58;99203.34;;;14.79;100.00
30598;BME280;17365;48.878;8.334;2023-08-06T06:48:25;99214.75;;;14.77;100.00
30598;BME280;17365;48.878;8.334;2023-08-06T06:50:50;99212.72;;;14.87;100.00
30598;BME280;17365;48.878;8.334;2023-08-06T06:53:16;99215.94;;;14.96;100.00
30598;BME280;17365;48.878;8.334;2023-08-06T06:55:41;99220.84;;;15.05;100.00
30598;BME280;17365;48.878;8.334;2023-08-06T06:58:06;99193.16;;;15.00;100.00
30598;BME280;17365;48.878;8.334;2023-08-06T07:00:31;99217.84;;;14.90;100.00
30598;BME280;17365;48.878;8.334;2023-08-06T07:02:57;99209.13;;;14.91;100.00
30598;BME280;17365;48.878;8.334;2023-08-06T07:05:22;99209.00;;;14.95;100.00
30598;BME280;17365;48.878;8.334;2023-08-06T07:07:47;99212.69;;;14.88;100.00
30598;BME280;17365;48.878;8.334;2023-08-06T07:10:12;99218.47;;;14.98;100.00
30598;BME280;17365;48.878;8.334;2023-08-06T07:12:37;99228.69;;;15.05;100.00
30598;BME280;17365;48.878;8.334;2023-08-06T07:15:04;99224.19;;;15.10;100.00
30598;BME280;17365;48.878;8.334;2023-08-06T07:17:29;99218.97;;;15.37;100.00
30598;BME280;17365;48.878;8.334;2023-08-06T07:19:55;99226.38;;;15.79;100.00
30598;BME280;17365;48.878;8.334;2023-08-06T07:22:20;99226.47;;;15.76;100.00
30598;BME280;17365;48.878;8.334;2023-08-06T07:24:45;99228.66;;;15.63;100.00
30598;BME280;17365;48.878;8.334;2023-08-06T07:27:10;99230.72;;;15.52;100.00
30598;BME280;17365;48.878;8.334;2023-08-06T07:29:35;99233.81;;;15.64;100.00
30598;BME280;17365;48.878;8.334;2023-08-06T07:32:01;99233.97;;;15.32;100.00
30598;BME280;17365;48.878;8.334;2023-08-06T07:34:26;99233.41;;;15.77;100.00
30598;BME280;17365;48.878;8.334;2023-08-06T07:36:51;99239.88;;;15.37;100.00
30598;BME280;17365;48.878;8.334;2023-08-06T07:39:16;99243.69;;;15.27;100.00
30598;BME280;17365;48.878;8.334;2023-08-06T07:41:42;99233.38;;;15.50;100.00
30598;BME280;17365;48.878;8.334;2023-08-06T07:44:07;99250.78;;;15.23;100.00
30598;BME280;17365;48.878;8.334;2023-08-06T07:46:32;99250.22;;;15.41;100.00
30598;BME280;17365;48.878;8.334;2023-08-06T07:48:57;99248.16;;;15.23;100.00
30598;BME280;17365;48.878;8.334;2023-08-06T07:51:22;99237.94;;;15.15;100.00
30598;BME280;17365;48.878;8.334;2023-08-06T07:53:47;99243.38;;;15.09;100.00
30598;BME280;17365;48.878;8.334;2023-08-06T07:56:13;99244.38;;;15.33;100.00
30598;BME280;17365;48.878;8.334;2023-08-06T07:58:38;99247.03;;;15.32;100.00
30598;BME280;17365;48.878;8.334;2023-08-06T08:01:03;99253.66;;;15.70;100.00
30598;BME280;17365;48.878;8.334;2023-08-06T08:03:28;99249.06;;;16.03;100.00
30598;BME280;17365;48.878;8.334;2023-08-06T08:05:54;99251.13;;;15.68;100.00
30598;BME280;17365;48.878;8.334;2023-08-06T08:08:21;99249.34;;;15.69;100.00
30598;BME280;17365;48.878;8.334;2023-08-06T08:10:46;99245.53;;;15.51;100.00
30598;BME280;17365;48.878;8.334;2023-08-06T08:13:11;99250.66;;;15.82;100.00
30598;BME280;17365;48.878;8.334;2023-08-06T08:15:37;99250.03;;;16.00;100.00
30598;BME280;17365;48.878;8.334;2023-08-06T08:18:02;99259.38;;;15.55;100.00
30598;BME280;17365;48.878;8.334;2023-08-06T08:20:27;99262.03;;;16.06;100.00
30598;BME280;17365;48.878;8.334;2023-08-06T08:23:00;99261.63;;;15.67;100.00
30598;BME280;17365;48.878;8.334;2023-08-06T08:25:26;99260.66;;;15.69;100.00
30598;BME280;17365;48.878;8.334;2023-08-06T08:27:51;99252.91;;;15.93;100.00
30598;BME280;17365;48.878;8.334;2023-08-06T08:30:16;99251.59;;;16.31;100.00
30598;BME280;17365;48.878;8.334;2023-08-06T08:32:42;99261.09;;;16.09;100.00
30598;BME280;17365;48.878;8.334;2023-08-06T08:35:07;99263.53;;;15.88;100.00
30598;BME280;17365;48.878;8.334;2023-08-06T08:37:32;99266.22;;;16.12;100.00
30598;BME280;17365;48.878;8.334;2023-08-06T08:39:57;99270.09;;;16.50;100.00
30598;BME280;17365;48.878;8.334;2023-08-06T08:42:23;99261.19;;;16.06;100.00
30598;BME280;17365;48.878;8.334;2023-08-06T08:44:48;99270.22;;;15.97;100.00
30598;BME280;17365;48.878;8.334;2023-08-06T08:47:13;99272.56;;;15.50;100.00
30598;BME280;17365;48.878;8.334;2023-08-06T08:49:41;99263.47;;;15.90;100.00
30598;BME280;17365;48.878;8.334;2023-08-06T08:52:07;99271.59;;;16.07;100.00
30598;BME280;17365;48.878;8.334;2023-08-06T08:54:35;99276.63;;;15.60;100.00
30598;BME280;17365;48.878;8.334;2023-08-06T08:57:02;99279.91;;;15.93;100.00
30598;BME280;17365;48.878;8.334;2023-08-06T08:59:28;99280.41;;;16.05;100.00
30598;BME280;17365;48.878;8.334;2023-08-06T09:01:53;99282.97;;;16.06;100.00
30598;BME280;17365;48.878;8.334;2023-08-06T09:04:19;99283.63;;;16.38;100.00
30598;BME280;17365;48.878;8.334;2023-08-06T09:06:50;99276.44;;;15.93;100.00
30598;BME280;17365;48.878;8.334;2023-08-06T09:09:16;99271.13;;;15.69;100.00
30598;BME280;17365;48.878;8.334;2023-08-06T09:11:44;99282.66;;;16.15;100.00
30598;BME280;17365;48.878;8.334;2023-08-06T09:14:09;99285.94;;;16.22;100.00
30598;BME280;17365;48.878;8.334;2023-08-06T09:16:35;99283.56;;;16.14;100.00
30598;BME280;17365;48.878;8.334;2023-08-06T09:19:07;99292.56;;;16.57;100.00
30598;BME280;17365;48.878;8.334;2023-08-06T09:21:33;99294.00;;;16.41;100.00
30598;BME280;17365;48.878;8.334;2023-08-06T09:24:00;99314.97;;;16.64;100.00
30598;BME280;17365;48.878;8.334;2023-08-06T09:26:32;99307.84;;;16.69;100.00
30598;BME280;17365;48.878;8.334;2023-08-06T09:28:58;99316.38;;;16.49;100.00
30598;BME280;17365;48.878;8.334;2023-08-06T09:31:24;99319.47;;;16.11;100.00
30598;BME280;17365;48.878;8.334;2023-08-06T09:33:49;99327.53;;;16.29;100.00
30598;BME280;17365;48.878;8.334;2023-08-06T09:36:15;99325.84;;;16.02;100.00
30598;BME280;17365;48.878;8.334;2023-08-06T09:38:40;99339.94;;;16.49;100.00
30598;BME280;17365;48.878;8.334;2023-08-06T09:41:05;99327.59;;;16.53;100.00
30598;BME280;17365;48.878;8.334;2023-08-06T09:43:39;99332.50;;;16.37;100.00
30598;BME280;17365;48.878;8.334;2023-08-06T09:46:10;99331.97;;;16.27;100.00
30598;BME280;17365;48.878;8.334;2023-08-06T09:48:35;99341.72;;;16.49;100.00
30598;BME280;17365;48.878;8.334;2023-08-06T09:51:00;99333.00;;;16.48;100.00
30598;BME280;17365;48.878;8.334;2023-08-06T09:53:27;99334.09;;;16.41;100.00
30598;BME280;17365;48.878;8.334;2023-08-06T09:55:53;99354.78;;;16.24;100.00
30598;BME280;17365;48.878;8.334;2023-08-06T09:58:19;99349.31;;;16.56;100.00
30598;BME280;17365;48.878;8.334;2023-08-06T10:00:47;99347.31;;;15.85;100.00
30598;BME280;17365;48.878;8.334;2023-08-06T10:03:12;99353.56;;;16.59;100.00
30598;BME280;17365;48.878;8.334;2023-08-06T10:05:39;99350.53;;;16.96;99.73
30598;BME280;17365;48.878;8.334;2023-08-06T10:08:04;99361.81;;;16.48;100.00
30598;BME280;17365;48.878;8.334;2023-08-06T10:10:31;99365.91;;;16.82;100.00
30598;BME280;17365;48.878;8.334;2023-08-06T10:12:57;99373.72;;;16.57;100.00
30598;BME280;17365;48.878;8.334;2023-08-06T10:15:27;99377.88;;;16.11;100.00
30598;BME280;17365;48.878;8.334;2023-08-06T10:17:54;99375.78;;;15.94;100.00
30598;BME280;17365;48.878;8.334;2023-08-06T10:20:21;99385.34;;;15.97;100.00
30598;BME280;17365;48.878;8.334;2023-08-06T10:22:59;99384.94;;;16.09;100.00
30598;BME280;17365;48.878;8.334;2023-08-06T10:25:25;99386.56;;;16.38;100.00
30598;BME280;17365;48.878;8.334;2023-08-06T10:30:31;99398.53;;;16.20;100.00
30598;BME280;17365;48.878;8.334;2023-08-06T10:32:58;99387.03;;;16.24;100.00
30598;BME280;17365;48.878;8.334;2023-08-06T10:40:31;99411.78;;;16.41;100.00
30598;BME280;17365;48.878;8.334;2023-08-06T10:42:58;99422.06;;;16.47;100.00
30598;BME280;17365;48.878;8.334;2023-08-06T10:45:23;99427.66;;;16.36;100.00
30598;BME280;17365;48.878;8.334;2023-08-06T10:47:53;99425.16;;;16.05;100.00
30598;BME280;17365;48.878;8.334;2023-08-06T10:50:18;99428.50;;;16.10;100.00
30598;BME280;17365;48.878;8.334;2023-08-06T10:52:44;99418.28;;;16.29;100.00
30598;BME280;17365;48.878;8.334;2023-08-06T10:55:10;99421.88;;;16.26;100.00
30598;BME280;17365;48.878;8.334;2023-08-06T10:57:35;99426.22;;;16.54;98.95
30598;BME280;17365;48.878;8.334;2023-08-06T11:00:00;99431.81;;;16.43;97.79
30598;BME280;17365;48.878;8.334;2023-08-06T11:02:26;99429.53;;;16.33;97.84
30598;BME280;17365;48.878;8.334;2023-08-06T11:04:51;99438.34;;;16.56;98.13
30598;BME280;17365;48.878;8.334;2023-08-06T11:07:16;99440.69;;;16.91;95.89
30598;BME280;17365;48.878;8.334;2023-08-06T11:09:42;99437.34;;;16.34;97.54
30598;BME280;17365;48.878;8.334;2023-08-06T11:12:10;99442.97;;;16.48;95.89
30598;BME280;17365;48.878;8.334;2023-08-06T11:14:35;99448.66;;;16.35;96.05
30598;BME280;17365;48.878;8.334;2023-08-06T11:17:01;99453.78;;;16.38;98.06
30598;BME280;17365;48.878;8.334;2023-08-06T11:19:26;99455.44;;;16.68;96.40
30598;BME280;17365;48.878;8.334;2023-08-06T11:21:51;99457.66;;;16.52;96.86
30598;BME280;17365;48.878;8.334;2023-08-06T11:24:16;99459.78;;;16.94;96.91
30598;BME280;17365;48.878;8.334;2023-08-06T11:26:42;99465.28;;;16.86;95.39
30598;BME280;17365;48.878;8.334;2023-08-06T11:29:09;99467.44;;;16.74;95.25
30598;BME280;17365;48.878;8.334;2023-08-06T11:31:35;99466.59;;;16.73;94.90
30598;BME280;17365;48.878;8.334;2023-08-06T11:34:00;99475.06;;;17.06;93.82
30598;BME280;17365;48.878;8.334;2023-08-06T11:36:29;99468.84;;;17.09;92.53
30598;BME280;17365;48.878;8.334;2023-08-06T11:38:55;99477.56;;;16.58;93.29
30598;BME280;17365;48.878;8.334;2023-08-06T11:41:21;99483.16;;;16.74;93.54
30598;BME280;17365;48.878;8.334;2023-08-06T11:43:46;99487.53;;;16.47;93.30
30598;BME280;17365;48.878;8.334;2023-08-06T11:46:12;99489.75;;;16.59;93.60
30598;BME280;17365;48.878;8.334;2023-08-06T11:48:52;99486.31;;;16.57;93.53
30598;BME280;17365;48.878;8.334;2023-08-06T11:51:18;99488.66;;;16.93;94.42
30598;BME280;17365;48.878;8.334;2023-08-06T11:53:48;99492.31;;;16.87;91.04
30598;BME280;17365;48.878;8.334;2023-08-06T11:56:14;99486.50;;;16.79;91.17
30598;BME280;17365;48.878;8.334;2023-08-06T11:58:41;99498.81;;;16.75;91.23
30598;BME280;17365;48.878;8.334;2023-08-06T12:01:06;99503.63;;;16.89;90.96
30598;BME280;17365;48.878;8.334;2023-08-06T12:03:31;99489.78;;;17.10;90.84
30598;BME280;17365;48.878;8.334;2023-08-06T12:05:56;99489.94;;;17.06;89.96
30598;BME280;17365;48.878;8.334;2023-08-06T12:08:25;99499.06;;;17.44;88.88
30598;BME280;17365;48.878;8.334;2023-08-06T12:10:51;99506.13;;;16.92;89.11
30598;BME280;17365;48.878;8.334;2023-08-06T12:13:18;99505.84;;;16.75;89.73
30598;BME280;17365;48.878;8.334;2023-08-06T12:15:43;99494.88;;;16.62;90.00
30598;BME280;17365;48.878;8.334;2023-08-06T12:18:09;99495.31;;;16.48;90.76
30598;BME280;17365;48.878;8.334;2023-08-06T12:20:34;99500.56;;;16.48;91.10
30598;BME280;17365;48.878;8.334;2023-08-06T12:22:59;99502.47;;;16.43;91.22
30598;BME280;17365;48.878;8.334;2023-08-06T12:25:25;99496.97;;;16.51;90.53
30598;BME280;17365;48.878;8.334;2023-08-06T12:27:50;99496.13;;;16.50;90.71
30598;BME280;17365;48.878;8.334;2023-08-06T12:30:15;99499.72;;;16.48;91.46
30598;BME280;17365;48.878;8.334;2023-08-06T12:32:40;99494.31;;;16.52;91.29
30598;BME280;17365;48.878;8.334;2023-08-06T12:35:06;99498.84;;;16.47;90.05
30598;BME280;17365;48.878;8.334;2023-08-06T12:37:32;99485.25;;;16.63;91.23
30598;BME280;17365;48.878;8.334;2023-08-06T12:39:57;99500.88;;;16.66;91.14
30598;BME280;17365;48.878;8.334;2023-08-06T12:42:22;99489.41;;;16.43;91.74
30598;BME280;17365;48.878;8.334;2023-08-06T12:44:49;99488.44;;;16.46;91.25
30598;BME280;17365;48.878;8.334;2023-08-06T12:47:15;99496.28;;;16.46;91.08
30598;BME280;17365;48.878;8.334;2023-08-06T12:49:40;99502.31;;;16.48;91.10
30598;BME280;17365;48.878;8.334;2023-08-06T12:52:05;99495.28;;;16.50;89.88
30598;BME280;17365;48.878;8.334;2023-08-06T12:54:31;99499.03;;;16.69;88.02